Home   Weather   Yaouk   Past weeks
Flag for Australia

Past Weather in Yaouk, New South Wales, Australia — Yesterday and Last 2 Weeks

Currently: 57 °F. Partly sunny. (Weather station: Canberra Airport, Australia). See more current weather

Past Weather in Yaouk — Graph

°F

Yaouk Temperature Yesterday

Maximum temperature yesterday: 57 °F (at 1:30 pm)
Minimum temperature yesterday: 28 °F (at 5:00 am)
Average temperature yesterday: 41 °F

High & Low Weather Summary for the Past Weeks

 TemperatureHumidityPressure
High70 °F (May 14, 2:00 pm)100% (May 6, 5:30 am)30.51 "Hg (May 6, 5:30 am)
Low28 °F (May 19, 5:00 am)34% (May 5, 3:00 pm)29.92 "Hg (May 5, 12:30 pm)
Average52 °F81%30.16 "Hg
* Reported May 5 12:00 pm — May 20 12:30 pm, Yaouk. Weather by CustomWeather, © 2022

Note: Actual official high and low records may vary slightly from our data, if they occured in-between our weather recording intervals... More about our weather records

Yaouk Weather History for the Previous 24 Hours

Scroll right to see more
 ConditionsComfort  
Time TempWeatherWind HumidityBarometerVisibility
12:30 pm
Fri, May 20
57 °FScattered clouds.3 mph55%30.48 "HgN/A
12:00 pm55 °FSunny.7 mph59%30.48 "HgN/A
11:30 am55 °FScattered clouds.8 mph59%30.51 "HgN/A
11:00 am54 °FPartly sunny.8 mph63%30.51 "HgN/A
9:30 am48 °FScattered clouds.9 mph71%30.51 "HgN/A
9:00 am46 °FScattered clouds.7 mph76%30.51 "HgN/A
8:30 am45 °FOvercast.6 mph81%30.51 "HgN/A
8:00 am43 °FOvercast.6 mph81%30.51 "HgN/A
7:30 am41 °FOvercast.6 mph87%30.51 "HgN/A
7:00 am41 °FOvercast.7 mph87%30.51 "HgN/A
6:30 am41 °FOvercast.5 mph87%30.48 "HgN/A
5:30 am39 °FPassing clouds.8 mph87%30.48 "HgN/A
5:00 am39 °FPassing clouds.7 mph87%30.45 "HgN/A
4:30 am37 °FClear.6 mph93%30.45 "HgN/A
4:00 am37 °FClear.7 mph93%30.45 "HgN/A
3:30 am32 °FClear.1 mph93%30.45 "HgN/A
3:00 am36 °FClear.7 mph93%30.45 "HgN/A
2:30 am36 °FClear.7 mph93%30.45 "HgN/A
2:00 am36 °FClear.6 mph87%30.45 "HgN/A
1:30 am37 °FClear.7 mph87%30.45 "HgN/A
1:00 am39 °FClear.8 mph87%30.45 "HgN/A
12:30 am36 °FClear.8 mph87%30.45 "HgN/A
12:00 am37 °FClear.7 mph93%30.45 "HgN/A
11:30 pm
Thu, May 19
39 °FPassing clouds.8 mph87%30.45 "HgN/A
11:00 pm36 °FPassing clouds.5 mph87%30.45 "HgN/A
10:30 pm39 °FPassing clouds.1 mph87%30.45 "HgN/A
10:00 pm39 °FPassing clouds.5 mph87%30.45 "HgN/A
9:30 pm39 °FClear.8 mph87%30.42 "HgN/A
9:00 pm37 °FClear.6 mph87%30.42 "HgN/A
8:30 pm37 °FClear.7 mph87%30.42 "HgN/A
8:00 pm39 °FClear.3 mph81%30.39 "HgN/A
7:30 pm39 °FClear.No wind81%30.39 "HgN/A
7:00 pm39 °FClear.6 mph81%30.36 "HgN/A
6:30 pm39 °FClear.5 mph70%30.36 "HgN/A
6:00 pm45 °FClear.3 mph66%30.33 "HgN/A
5:30 pm45 °FClear.7 mph61%30.33 "HgN/A
5:00 pm50 °FSunny.7 mph54%30.30 "HgN/A
4:30 pm55 °FSunny.9 mph44%30.30 "HgN/A
4:00 pm55 °FSunny.8 mph44%30.30 "HgN/A
3:30 pm57 °FSunny.6 mph41%30.27 "HgN/A
3:00 pm57 °FSunny.8 mph41%30.27 "HgN/A
2:30 pm57 °FSunny.9 mph41%30.27 "HgN/A
2:00 pm55 °FSunny.7 mph38%30.27 "HgN/A
Weather by CustomWeather, © 2022

See weather overview